KONTKLAS

Guest
Details From KONT - Ontario Intl
To KLAS - Mc Carran Intl
Flight Number -
Tags generated
Created
Modified
Stats Distance 171 nm / 317 km
Max Altitude 17,200 ft / 5,243 m
Waypoints 3
Social Downloads 0
Likes 0
Share VATSIM

Download

Looking for another format? Having issues loading an existing format? Contact us
Advertisement - Login to hide

Notes

Basic altitude profile: - Ascent Rate: 2500ft/min - Ascent Speed: 250kts - Cruise Altitude: 2500ft - Cruise Speed: 420kts - Descent Rate: 1500ft/min - Descent Speed: 250kts Options: - Use NATs: no - Use PACOTS: yes - Use low airways: yes - Use high airways: no

Route

KONT TEELE KLAS

ID Type Via Altitude Latitude Longitude Leg Dist Tot Dist Heading (true) Name
O KONT APT - 0 ft / 0 m 34.05592˚ -117.60085˚ - 0 nm - Ontario Intl
TEELE FIX - 17,200 ft / 5,243 m 35.05764˚ -116.36392˚ 85 nm 85 nm 45° / 46° -
O KLAS APT - 0 ft / 0 m 36.08097˚ -115.15345˚ 85 nm 171 nm 44° / 44° Mc Carran Intl

Altitude Profile

Advertisement - Login to hide

Weather


0- 5 10 15 20 25 30 35+ Temperature / ° C

Clouds and Precipitation
Forecast for 2017-12-16 00:00 UTC. Updated 35 minutes ago

Ground ~20,000 ft ~40,000 ft Winds

KONT

Details ICAO KONT (ONT)
Name Ontario Intl
Region United States
Timezone America/Los_Angeles (UTC-8.0)
Stats Elevation 944 ft / 288 m (AMSL)
Location 34.055917° -117.600853°
Runways 2
Magnetic Variation 11.862° E

METAR

KONT 152053Z 25004KT 10SM SCT250 26/M15 A3008 RMK AO2 SLP173 T02561150 58030

Decode

TAF

TAF KONT 151720Z 1518/1624 VRB06KT P6SM SKC= TAF KSNS 151720Z 1518/1618 12011KT P6SM SKC FM152200 28008KT P6SM FEW200 FM160100 27006KT P6SM BKN200 FM160600 26006KT P6SM SCT200 FM161100 27005KT P6SM FEW200

Decode

Departure Runways

ID Width Length Bearing (true) Bearing (mag) Surface Threshold Offset Overrun Length
08L 151 ft / 46 m 12,279 ft / 3,743 m 89.96° 78.10° Concrete 997 ft / 304 m 400 ft / 122 m
26L 151 ft / 46 m 10,269 ft / 3,130 m 269.97° 258.11° Concrete 0 ft / 0 m 400 ft / 122 m
26R 151 ft / 46 m 12,279 ft / 3,743 m 269.99° 258.13° Concrete 0 ft / 0 m 400 ft / 122 m
8R 151 ft / 46 m 10,269 ft / 3,130 m 89.95° 78.09° Concrete 0 ft / 0 m 400 ft / 122 m

KLAS

Details ICAO KLAS (LAS)
Name Mc Carran Intl
Region United States
Timezone America/Los_Angeles (UTC-8.0)
Stats Elevation 2,141 ft / 653 m (AMSL)
Location 36.080975° -115.153446°
Runways 4
Magnetic Variation 11.655° E

METAR

KLAS 152056Z VRB05KT 10SM SCT250 15/M08 A3016 RMK AO2 SLP208 T01501083 58038

Decode

TAF

KLAS 152104Z 1521/1624 06006KT P6SM SCT200 FM160200 VRB05KT P6SM BKN200 FM160700 36007KT P6SM BKN200 FM161500 VRB05KT P6SM SCT100 BKN150

Decode

Destination Runways

ID Width Length Bearing (true) Bearing (mag) Surface Threshold Offset Overrun Length
01L 151 ft / 46 m 9,783 ft / 2,982 m 24.85° 13.20° Concrete 584 ft / 178 m 410 ft / 125 m
01R 151 ft / 46 m 9,791 ft / 2,984 m 24.84° 13.19° Concrete 492 ft / 150 m 394 ft / 120 m
07L 151 ft / 46 m 14,833 ft / 4,521 m 89.89° 78.24° Asphalt 2,477 ft / 755 m 374 ft / 114 m
07R 151 ft / 46 m 10,503 ft / 3,201 m 89.92° 78.27° Asphalt 0 ft / 0 m 390 ft / 119 m
19L 151 ft / 46 m 9,791 ft / 2,984 m 204.84° 193.19° Concrete 879 ft / 268 m 410 ft / 125 m
19R 151 ft / 46 m 9,783 ft / 2,982 m 204.86° 193.21° Concrete 771 ft / 235 m 410 ft / 125 m
25L 151 ft / 46 m 10,503 ft / 3,201 m 269.94° 258.29° Asphalt 0 ft / 0 m 410 ft / 125 m
25R 151 ft / 46 m 14,833 ft / 4,521 m 269.92° 258.27° Asphalt 1,398 ft / 426 m 623 ft / 190 m

Approach Navaids

Runway Type Ident Frequency Range Bearing (true) Bearing (mag) Slope Elevation
01L Localiser ICUA 110.10 MHz 18 nm / 33 km 24.83° 13.17° - 2,079 ft / 634 m (AMSL)
01L Glidescope ICUA 110.10 MHz 10 nm / 19 km 24.85° 13.20° 3.40° 2,159 ft / 658 m (AMSL)
01L DME ICUA 110.10 MHz 18 nm / 33 km - - - 2,092 ft / 638 m (AMSL)
25L Localiser IRLE 111.75 MHz 18 nm / 33 km 269.93° 258.28° - 2,141 ft / 653 m (AMSL)
25L Glidescope IRLE 111.75 MHz 10 nm / 19 km 269.93° 258.28° 3.00° 2,054 ft / 626 m (AMSL)
25R Localiser ILAS 110.30 MHz 45 nm / 83 km 269.93° 258.27° - 2,187 ft / 667 m (AMSL)
25R Glidescope ILAS 110.30 MHz 10 nm / 19 km 269.91° 258.25° 3.00° 2,046 ft / 624 m (AMSL)
25R DME ILAS 110.30 MHz 18 nm / 33 km - - - 2,203 ft / 671 m (AMSL)

Popular Alternatives